^^
Meteo Knjazevac Station Historical Data
Daily Summary for July 10, 2021 Units:  English    Metric   Both
Daily Weekly Monthly Yearly Custom
  High: Low: Average:
Temperature: 37.2 °F 33.8 °F 34.9 °F
Dew Point: 37 °F 33.5 °F 34.7 °F
Humidity: 99% 99% 99%
Wind Speed: 3mph 0mph 0.9mph
Wind Gust: 8mph - -
Wind- - ESE
Pressure: 29.80 in 29.73 in -
Precipitation: 0.16 in    
Historical Graphs
 
 
Tabular Data for July 10, 2021
Time Temperature Dew Point Pressure Wind Wind Speed Wind Gust Humidity Rainfall Rate (Hourly) solar Conditions
00:00 33.8 °F 33.5 °F 29.80 in North 2 mph 6 mph 99% 0.00 in 0 W/m2
00:10 34 °F 33.7 °F 29.80 in NNE 2 mph 5 mph 99% 0.00 in 0 W/m2
00:20 33.9 °F 33.6 °F 29.80 in Calm   5 mph 99% 0.00 in 0 W/m2
00:30 33.8 °F 33.5 °F 29.80 in North 1 mph 5 mph 99% 0.00 in 0 W/m2
00:40 34 °F 33.7 °F 29.79 in NNE 2 mph 4 mph 99% 0.00 in 0 W/m2
00:50 33.8 °F 33.5 °F 29.80 in North 1 mph 4 mph 99% 0.00 in 0 W/m2
01:00 33.8 °F 33.5 °F 29.79 in North 1 mph 4 mph 99% 0.00 in 0 W/m2
01:10 33.8 °F 33.5 °F 29.79 in Calm   3 mph 99% 0.00 in 0 W/m2
01:20 34 °F 33.7 °F 29.79 in North 1 mph 2 mph 99% 0.00 in 0 W/m2
01:30 34 °F 33.7 °F 29.79 in NNE 2 mph 3 mph 99% 0.00 in 0 W/m2
01:40 34 °F 33.7 °F 29.80 in Calm   3 mph 99% 0.01 in 0 W/m2
01:50 34 °F 33.7 °F 29.80 in Calm   2 mph 99% 0.02 in 0 W/m2
02:00 34 °F 33.7 °F 29.79 in NE 2 mph 4 mph 99% 0.02 in 0 W/m2
02:10 34 °F 33.7 °F 29.80 in East 1 mph 8 mph 99% 0.01 in 0 W/m2
02:20 34 °F 33.7 °F 29.80 in NNE 2 mph 5 mph 99% 0.00 in 0 W/m2
02:30 34 °F 33.7 °F 29.80 in NW 1 mph 3 mph 99% 0.00 in 0 W/m2
02:40 34 °F 33.7 °F 29.80 in NNW 1 mph 3 mph 99% 0.01 in 0 W/m2
02:50 34 °F 33.7 °F 29.79 in North 2 mph 4 mph 99% 0.01 in 0 W/m2
03:00 34.2 °F 33.9 °F 29.79 in North 2 mph 4 mph 99% 0.00 in 0 W/m2
03:10 34.2 °F 33.9 °F 29.78 in NNE 1 mph 3 mph 99% 0.01 in 0 W/m2
03:20 34.2 °F 33.9 °F 29.78 in Calm   2 mph 99% 0.01 in 0 W/m2
03:30 34.2 °F 33.9 °F 29.78 in Calm   4 mph 99% 0.01 in 0 W/m2
03:40 34.2 °F 33.9 °F 29.78 in Calm   3 mph 99% 0.01 in 0 W/m2
03:50 34.2 °F 33.9 °F 29.77 in North 1 mph 5 mph 99% 0.00 in 0 W/m2
04:00 34.2 °F 33.9 °F 29.78 in WNW 1 mph 4 mph 99% 0.00 in 0 W/m2
04:10 34.2 °F 33.9 °F 29.78 in Calm   5 mph 99% 0.00 in 0 W/m2
04:20 34.2 °F 33.9 °F 29.78 in North 2 mph 4 mph 99% 0.00 in 0 W/m2
04:30 34.3 °F 34 °F 29.77 in NNE 1 mph 5 mph 99% 0.00 in 0 W/m2
04:40 34.3 °F 34.1 °F 29.77 in WNW 2 mph 3 mph 99% 0.00 in 0 W/m2
04:50 34.2 °F 33.9 °F 29.77 in North 1 mph 4 mph 99% 0.00 in 0 W/m2
05:00 34.3 °F 34 °F 29.76 in Calm   7 mph 99% 0.00 in 0 W/m2
05:10 34.3 °F 34 °F 29.77 in Calm   2 mph 99% 0.00 in 0 W/m2
05:20 34.2 °F 33.9 °F 29.76 in Calm   3 mph 99% 0.00 in 0 W/m2
05:30 34.3 °F 34 °F 29.77 in NE 1 mph 3 mph 99% 0.00 in 0 W/m2
05:40 34.2 °F 33.9 °F 29.77 in NE 1 mph 3 mph 99% 0.00 in 0 W/m2
05:50 34.2 °F 33.9 °F 29.77 in Calm   2 mph 99% 0.00 in 0 W/m2
06:00 34.2 °F 33.9 °F 29.76 in Calm   2 mph 99% 0.00 in 0 W/m2
06:10 34.2 °F 33.9 °F 29.76 in Calm   4 mph 99% 0.00 in 0 W/m2
06:20 34.2 °F 33.9 °F 29.76 in North 1 mph 3 mph 99% 0.00 in 0 W/m2
06:30 34.2 °F 33.9 °F 29.76 in North 1 mph 2 mph 99% 0.00 in 0 W/m2
06:40 34.2 °F 33.9 °F 29.77 in NNW 1 mph 2 mph 99% 0.00 in 0 W/m2
06:50 34.2 °F 33.9 °F 29.77 in Calm   2 mph 99% 0.00 in 0 W/m2
07:00 34.2 °F 33.9 °F 29.76 in North 1 mph 3 mph 99% 0.00 in 1 W/m2
07:10 34.2 °F 33.9 °F 29.76 in NNE 1 mph 3 mph 99% 0.00 in 2 W/m2
07:20 34.3 °F 34 °F 29.77 in NNE 1 mph 3 mph 99% 0.01 in 4 W/m2
07:30 34.3 °F 34.1 °F 29.77 in Calm   3 mph 99% 0.01 in 7 W/m2
07:40 34.3 °F 34.1 °F 29.77 in North 1 mph 2 mph 99% 0.00 in 12 W/m2
07:50 34.3 °F 34.1 °F 29.76 in NNE 1 mph 2 mph 99% 0.00 in 19 W/m2
08:00 34.5 °F 34.3 °F 29.77 in Calm   2 mph 99% 0.00 in 34 W/m2
08:10 34.5 °F 34.3 °F 29.76 in North 1 mph 4 mph 99% 0.00 in 46 W/m2
08:20 34.5 °F 34.3 °F 29.77 in NNE 2 mph 3 mph 99% 0.00 in 45 W/m2
08:30 34.7 °F 34.4 °F 29.77 in NNE 1 mph 3 mph 99% 0.00 in 50 W/m2
08:40 34.7 °F 34.4 °F 29.77 in Calm   4 mph 99% 0.00 in 51 W/m2
08:50 34.7 °F 34.4 °F 29.77 in North 1 mph 3 mph 99% 0.00 in 52 W/m2
09:00 34.9 °F 34.6 °F 29.77 in NNE 1 mph 3 mph 99% 0.00 in 54 W/m2
09:10 35.1 °F 34.8 °F 29.76 in NNE 1 mph 5 mph 99% 0.00 in 83 W/m2
09:20 35.2 °F 35 °F 29.76 in NE 3 mph 6 mph 99% 0.00 in 102 W/m2
09:30 35.4 °F 35.2 °F 29.77 in NNW 1 mph 2 mph 99% 0.00 in 57 W/m2
09:40 35.4 °F 35.2 °F 29.76 in North 1 mph 4 mph 99% 0.00 in 75 W/m2
09:50 35.6 °F 35.3 °F 29.77 in Calm   2 mph 99% 0.00 in 90 W/m2
10:00 35.8 °F 35.5 °F 29.77 in Calm   5 mph 99% 0.00 in 62 W/m2
10:10 35.8 °F 35.5 °F 29.77 in North 1 mph 5 mph 99% 0.00 in 41 W/m2
10:20 35.8 °F 35.5 °F 29.77 in North 1 mph 5 mph 99% 0.00 in 40 W/m2
10:30 36 °F 35.7 °F 29.76 in North 2 mph 5 mph 99% 0.00 in 61 W/m2
10:40 36.1 °F 35.8 °F 29.76 in NNE 1 mph 5 mph 99% 0.00 in 86 W/m2
10:50 36.3 °F 36.1 °F 29.76 in NNE 2 mph 5 mph 99% 0.00 in 80 W/m2
11:00 36.3 °F 36.1 °F 29.75 in North 1 mph 6 mph 99% 0.00 in 78 W/m2
11:10 36.3 °F 36.1 °F 29.75 in North 1 mph 4 mph 99% 0.00 in 73 W/m2
11:20 36.4 °F 36.2 °F 29.75 in North 1 mph 4 mph 99% 0.00 in 58 W/m2
11:30 36.5 °F 36.2 °F 29.75 in Calm   3 mph 99% 0.00 in 52 W/m2
11:40 36.5 °F 36.2 °F 29.74 in NNE 2 mph 5 mph 99% 0.00 in 72 W/m2
11:50 36.5 °F 36.2 °F 29.74 in NNE 1 mph 5 mph 99% 0.00 in 67 W/m2
12:00 36.5 °F 36.2 °F 29.74 in North 1 mph 4 mph 99% 0.00 in 72 W/m2
12:10 36.7 °F 36.4 °F 29.74 in North 1 mph 4 mph 99% 0.00 in 61 W/m2
12:20 36.7 °F 36.4 °F 29.74 in Calm   2 mph 99% 0.00 in 104 W/m2
12:30 36.9 °F 36.6 °F 29.74 in North 1 mph 4 mph 99% 0.00 in 74 W/m2
12:40 37 °F 36.8 °F 29.74 in North 1 mph 3 mph 99% 0.00 in 46 W/m2
12:50 37 °F 36.8 °F 29.73 in NNE 1 mph 3 mph 99% 0.00 in 66 W/m2
13:00 37 °F 36.8 °F 29.73 in NNE 2 mph 4 mph 99% 0.00 in 61 W/m2
13:10 37 °F 36.8 °F 29.73 in Calm   3 mph 99% 0.00 in 64 W/m2
13:20 37.2 °F 37 °F 29.73 in NNE 1 mph 3 mph 99% 0.00 in 46 W/m2
13:30 37.2 °F 37 °F 29.73 in Calm   3 mph 99% 0.00 in 39 W/m2
13:40 37.2 °F 37 °F 29.73 in Calm   5 mph 99% 0.00 in 58 W/m2
13:50 37.2 °F 37 °F 29.73 in North 1 mph 3 mph 99% 0.00 in 62 W/m2
Knjazevac, Serbia
Compliments of Weather Underground - 2 mb